Hager City, Wisconsin
Current Conditions -  °F | °C
As of 12:11 PM on Friday 28 Nov 2014 (Local Time) from KRGK Reporting Station
Broken Clouds Broken Clouds  
Wind Chill: 15°   Ceiling: 2500
Heat Index: 23°   Visibility: 10mi
Dew Point: 12°   Wind: 7mph
Humidity: 63%   Direction: 160°SSE
Pressure: 29.93"   Gusts: NA
Location:  44.6°N, 92.54°W
Report Text: KRGK 281811Z AUTO 16006KT 10SM BKN025 M05/M11 A2993 RMK AO2
Loading
Personal Weather Stations






























Interactive Weather Map New forecast layout! Learn more

10-Day Weather Forecast

Advertisements
Track Severe Weather on mobile